Time;durP1;ratioP1;P1;durP2;ratioP2;P2;SDS_P1;SDS_P2;PMS_P1;PMS_P2;Temp;Humidity;BMP_temperature;BMP_pressure;BME280_temperature;BME280_humidity;BME280_pressure;Samples;Min_cycle;Max_cycle;Signal;HPM_P1;HPM_P2
2023/09/23 05:28:58;;;;;;;;;2.75;1.00;;;;;19.70;52.89;101009.44;5176613;27;45324;-54
2023/09/23 05:31:23;;;;;;;;;2.00;0.00;;;;;19.97;52.16;101015.38;5156659;27;45388;-55
2023/09/23 05:33:48;;;;;;;;;0.00;0.00;;;;;20.12;51.14;101013.28;5158067;27;45309;-54
2023/09/23 05:36:14;;;;;;;;;0.00;0.00;;;;;20.36;50.84;101018.59;5157444;27;59582;-58
2023/09/23 05:38:40;;;;;;;;;1.75;0.00;;;;;20.60;50.04;101032.91;5157975;27;46962;-54
2023/09/23 05:41:05;;;;;;;;;0.00;0.00;;;;;20.63;49.65;101029.06;5156771;27;45508;-56
2023/09/23 05:46:09;;;;;;;;;2.00;0.50;;;;;20.41;49.17;100985.56;5005140;25;45755;-58
2023/09/23 05:48:34;;;;;;;;;4.00;0.00;;;;;20.87;49.02;101043.34;5094464;27;46134;-58
2023/09/23 05:51:07;;;;;;;;;2.50;0.00;;;;;20.83;48.59;101052.81;5095671;27;45472;-56
2023/09/23 05:53:33;;;;;;;;;2.00;1.00;;;;;20.91;48.20;101061.19;5095283;27;45439;-58
2023/09/23 05:55:59;;;;;;;;;1.00;1.00;;;;;21.03;48.28;101065.59;5095696;27;45291;-57
2023/09/23 05:58:25;;;;;;;;;0.00;0.00;;;;;21.10;47.96;101060.47;5093881;27;46348;-58
2023/09/23 06:00:50;;;;;;;;;0.75;0.75;;;;;21.24;47.70;101071.13;5095391;27;45277;-58
2023/09/23 06:03:17;;;;;;;;;0.00;0.00;;;;;21.35;47.55;101067.50;5095360;27;45444;-58
2023/09/23 06:05:44;;;;;;;;;0.00;0.00;;;;;21.48;47.24;101070.88;5095546;27;45227;-58
2023/09/23 06:08:10;;;;;;;;;1.00;1.00;;;;;21.12;46.78;101020.31;5095258;27;46276;-57
2023/09/23 06:10:36;;;;;;;;;3.00;1.00;;;;;21.40;46.77;101076.13;5095376;27;45224;-58
2023/09/23 06:13:02;;;;;;;;;2.25;1.00;;;;;21.34;47.06;101080.25;5094525;27;45655;-57
2023/09/23 06:15:28;;;;;;;;;1.00;1.00;;;;;21.41;46.91;101089.66;5094798;27;45541;-58
2023/09/23 06:17:54;;;;;;;;;4.50;2.00;;;;;21.42;47.05;101093.25;5095087;27;45963;-57
2023/09/23 06:20:19;;;;;;;;;0.00;0.00;;;;;21.32;47.09;101095.88;5095146;27;45203;-58
2023/09/23 06:22:45;;;;;;;;;1.75;1.00;;;;;21.31;46.37;101087.84;5095047;27;45290;-57
2023/09/23 06:25:11;;;;;;;;;0.00;0.00;;;;;21.13;47.30;101098.41;5095313;27;46131;-57
2023/09/23 06:27:36;;;;;;;;;0.00;0.00;;;;;21.31;46.70;101106.91;5688947;22;60874;-58
2023/09/23 06:30:02;;;;;;;;;0.00;0.00;;;;;21.42;46.55;101115.06;5069266;28;45585;-58
2023/09/23 06:32:28;;;;;;;;;0.00;0.00;;;;;21.29;46.43;101107.03;5043991;28;45455;-58
2023/09/23 06:34:54;;;;;;;;;1.00;1.00;;;;;21.44;46.56;101119.38;5050269;28;45319;-58
2023/09/23 06:37:19;;;;;;;;;1.00;0.00;;;;;21.26;46.19;101077.34;5046154;28;45955;-58
2023/09/23 06:39:45;;;;;;;;;0.00;0.00;;;;;21.56;46.51;101114.75;5041318;28;45212;-59
2023/09/23 06:42:10;;;;;;;;;1.00;1.00;;;;;21.49;46.22;101122.59;5041165;28;45549;-58
2023/09/23 06:44:36;;;;;;;;;0.25;0.00;;;;;21.45;46.15;101125.69;5040807;28;45217;-59
2023/09/23 06:52:11;;;;;;;;;3.00;2.00;;;;;21.52;45.90;101135.13;5054439;28;45516;-59
2023/09/23 06:54:37;;;;;;;;;6.50;1.75;;;;;21.64;45.97;101130.44;5060363;28;46377;-58
2023/09/23 06:57:02;;;;;;;;;6.75;3.00;;;;;21.64;45.93;101125.84;5042133;28;56371;-58
2023/09/23 06:59:27;;;;;;;;;4.25;1.00;;;;;21.63;45.77;101137.75;5060727;28;45347;-57
2023/09/23 07:01:53;;;;;;;;;2.75;2.50;;;;;21.31;46.25;101113.25;5060909;28;46563;-58
2023/09/23 07:04:18;;;;;;;;;2.00;2.00;;;;;21.43;46.28;101128.56;5060964;28;45346;-58
2023/09/23 07:06:43;;;;;;;;;3.75;2.00;;;;;21.43;45.83;101147.69;5060727;28;45299;-59
2023/09/23 07:09:08;;;;;;;;;2.50;1.00;;;;;21.41;46.15;101141.47;5060503;28;45458;-59
2023/09/23 07:11:34;;;;;;;;;1.00;1.00;;;;;21.30;46.08;101122.41;5076631;28;45346;-59
2023/09/23 07:14:00;;;;;;;;;1.50;1.00;;;;;21.64;46.15;101164.06;5060660;28;45485;-59
2023/09/23 07:19:01;;;;;;;;;2.00;1.00;;;;;21.70;45.26;101136.22;5436041;22;45657;-59
2023/09/23 07:21:27;;;;;;;;;3.50;2.00;;;;;21.79;44.83;101116.34;5080464;28;45189;-59
2023/09/23 07:23:52;;;;;;;;;2.25;1.00;;;;;22.43;44.39;101181.72;5061290;28;47151;-59
2023/09/23 07:26:21;;;;;;;;;2.50;1.00;;;;;22.60;43.74;101188.44;5080588;28;45494;-59
2023/09/23 07:28:50;;;;;;;;;2.00;1.00;;;;;22.48;43.87;101195.84;5080769;28;45372;-59
2023/09/23 07:31:15;;;;;;;;;4.50;2.00;;;;;22.43;44.47;101198.13;5080945;27;45234;-58
2023/09/23 07:33:41;;;;;;;;;2.00;1.00;;;;;22.30;44.00;101153.75;5080238;28;45236;-60
2023/09/23 07:36:13;;;;;;;;;1.75;1.75;;;;;22.59;44.16;101197.63;5080311;28;50845;-58
2023/09/23 07:38:39;;;;;;;;;2.00;2.00;;;;;22.58;43.68;101202.22;5080863;28;45319;-58
2023/09/23 07:41:04;;;;;;;;;2.00;2.00;;;;;22.63;43.86;101208.13;5079832;28;45252;-59
2023/09/23 07:43:30;;;;;;;;;3.50;3.50;;;;;22.64;43.60;101207.13;5080585;28;45553;-59
2023/09/23 07:45:55;;;;;;;;;2.00;2.00;;;;;22.74;43.75;101218.16;5079968;28;45312;-61
2023/09/23 07:48:20;;;;;;;;;5.25;4.00;;;;;22.75;43.35;101219.88;5079085;28;58348;-60
2023/09/23 07:50:46;;;;;;;;;5.50;4.00;;;;;22.78;43.30;101219.63;5079201;28;45302;-61
2023/09/23 07:53:11;;;;;;;;;3.00;3.00;;;;;22.97;43.45;101218.81;5080077;28;45219;-61
2023/09/23 07:55:37;;;;;;;;;3.75;3.00;;;;;22.97;43.13;101227.88;5080338;27;46044;-60
2023/09/23 07:58:02;;;;;;;;;3.00;3.00;;;;;22.91;42.72;101217.50;5079821;27;45238;-61
2023/09/23 08:00:28;;;;;;;;;6.75;5.50;;;;;22.92;43.17;101174.63;5080266;28;45271;-59
2023/09/23 08:02:53;;;;;;;;;3.00;3.00;;;;;23.29;42.92;101235.91;5079894;27;45253;-58
2023/09/23 08:05:18;;;;;;;;;6.00;4.00;;;;;23.43;42.25;101233.78;5078758;28;47337;-60
2023/09/23 08:07:44;;;;;;;;;4.00;4.00;;;;;23.19;42.48;101240.50;5080047;27;45338;-60
2023/09/23 08:12:44;;;;;;;;;4.00;2.25;;;;;23.28;42.21;101272.50;5349381;22;45405;-61
2023/09/23 08:15:11;;;;;;;;;5.25;5.25;;;;;23.14;42.23;101263.81;5069960;28;46971;-60
2023/09/23 08:17:38;;;;;;;;;2.75;2.00;;;;;23.11;42.41;101275.00;5079456;27;45214;-60
2023/09/23 08:20:11;;;;;;;;;3.75;2.25;;;;;22.87;42.51;101218.81;5069943;27;45519;-61
2023/09/23 08:22:40;;;;;;;;;5.25;3.25;;;;;23.19;42.39;101278.78;5079682;28;45416;-61
2023/09/23 08:25:06;;;;;;;;;2.00;2.00;;;;;23.30;41.97;101288.78;5078444;28;47143;-61
2023/09/23 08:27:31;;;;;;;;;2.75;2.75;;;;;23.23;42.15;101301.25;5083056;27;45552;-60
2023/09/23 08:29:56;;;;;;;;;1.00;1.00;;;;;23.25;42.03;101289.16;5090465;27;45545;-60
2023/09/23 08:32:22;;;;;;;;;1.00;1.00;;;;;23.51;42.40;101278.63;5083479;27;45646;-60
2023/09/23 08:34:47;;;;;;;;;2.25;2.25;;;;;23.52;41.98;101296.78;5087444;27;46327;-60
2023/09/23 08:37:12;;;;;;;;;1.00;1.00;;;;;23.53;41.66;101301.25;5083262;27;53548;-60
2023/09/23 08:39:37;;;;;;;;;0.75;0.75;;;;;23.74;41.40;101304.72;5061622;28;45474;-60
2023/09/23 08:42:04;;;;;;;;;2.75;1.00;;;;;23.52;41.66;101320.53;5075840;28;60455;-61
2023/09/23 08:44:32;;;;;;;;;3.00;1.75;;;;;23.55;41.67;101323.88;5078652;28;45517;-61
2023/09/23 08:46:57;;;;;;;;;2.50;2.50;;;;;23.64;41.86;101320.31;5078982;28;45692;-61
2023/09/23 08:49:25;;;;;;;;;3.50;3.50;;;;;23.70;41.03;101321.59;5082024;27;45345;-61
2023/09/23 08:51:55;;;;;;;;;4.00;2.00;;;;;23.50;41.75;101319.81;5058964;28;46175;-61
2023/09/23 08:54:25;;;;;;;;;1.50;1.00;;;;;23.39;41.80;101329.81;5085895;27;46836;-61
2023/09/23 08:56:52;;;;;;;;;2.25;2.25;;;;;23.45;41.71;101322.06;5078421;27;45390;-61
2023/09/23 08:59:17;;;;;;;;;2.25;1.00;;;;;23.68;41.66;101338.16;5084327;27;45473;-61
2023/09/23 09:01:44;;;;;;;;;4.50;4.50;;;;;23.86;41.29;101337.47;5088918;27;45462;-61
2023/09/23 09:04:12;;;;;;;;;2.50;2.50;;;;;23.90;40.84;101339.81;5079218;27;46023;-61
2023/09/23 09:06:49;;;;;;;;;5.00;4.25;;;;;23.90;40.40;101344.41;5079130;28;45286;-61
2023/09/23 09:09:15;;;;;;;;;2.00;2.00;;;;;23.93;40.94;101336.75;5078924;27;45247;-62
2023/09/23 09:11:41;;;;;;;;;3.00;3.00;;;;;24.03;40.70;101336.78;5078760;27;45260;-61
2023/09/23 09:14:07;;;;;;;;;5.25;4.25;;;;;24.09;41.45;101344.41;5065899;27;47012;-63
2023/09/23 09:16:32;;;;;;;;;2.75;2.00;;;;;24.19;40.83;101341.69;5084496;27;45402;-60
2023/09/23 09:18:57;;;;;;;;;2.75;2.75;;;;;24.11;40.53;101324.09;5078556;28;54217;-59
2023/09/23 09:21:24;;;;;;;;;2.00;1.00;;;;;24.34;40.54;101332.06;5079951;27;46139;-58
2023/09/23 09:23:49;;;;;;;;;1.75;1.75;;;;;24.32;39.61;101337.72;5082412;27;47181;-60
2023/09/23 09:26:18;;;;;;;;;1.00;1.00;;;;;24.32;40.28;101337.72;5083913;27;48907;-59
2023/09/23 09:28:43;;;;;;;;;2.25;2.25;;;;;24.41;40.05;101333.22;5083299;27;45280;-60
2023/09/23 09:31:09;;;;;;;;;2.00;0.25;;;;;24.66;39.88;101329.88;5079126;27;46232;-58
2023/09/23 09:33:37;;;;;;;;;1.50;1.50;;;;;24.93;40.41;101330.97;5078970;27;45288;-59
2023/09/23 09:36:07;;;;;;;;;1.00;1.00;;;;;25.16;39.54;101333.22;5078091;27;45330;-60
2023/09/23 09:38:33;;;;;;;;;3.00;2.00;;;;;24.91;38.89;101342.13;5078958;27;45162;-59
2023/09/23 09:41:04;;;;;;;;;3.25;1.50;;;;;24.85;38.13;101335.31;5079000;27;45854;-59
2023/09/23 09:43:30;;;;;;;;;1.75;1.00;;;;;25.15;38.86;101334.25;5088941;27;45662;-59
2023/09/23 09:45:57;;;;;;;;;1.00;1.00;;;;;25.31;38.65;101335.47;5078575;27;45274;-59
2023/09/23 09:48:28;;;;;;;;;2.00;2.00;;;;;25.23;37.62;101342.59;5079621;27;45378;-59
2023/09/23 09:50:55;;;;;;;;;2.00;2.00;;;;;25.08;37.83;101338.59;5083975;27;45248;-59
2023/09/23 09:53:22;;;;;;;;;2.00;2.00;;;;;25.15;37.38;101345.22;5066949;27;47767;-59
2023/09/23 09:55:49;;;;;;;;;1.00;1.00;;;;;25.26;38.33;101350.50;5069423;27;45571;-58
2023/09/23 09:58:14;;;;;;;;;0.75;0.75;;;;;25.50;37.92;101362.84;5079774;27;45347;-59
2023/09/23 10:00:47;;;;;;;;;2.00;2.00;;;;;25.45;37.89;101349.56;5078662;28;45353;-58
2023/09/23 10:03:15;;;;;;;;;0.00;0.00;;;;;25.42;37.21;101358.13;5080407;27;45364;-58
2023/09/23 10:05:43;;;;;;;;;1.00;1.00;;;;;25.38;37.54;101353.94;5091162;27;45280;-59
2023/09/23 10:08:24;;;;;;;;;1.25;1.00;;;;;25.57;37.63;101366.72;5083070;27;45280;-59
2023/09/23 10:10:57;;;;;;;;;1.25;1.00;;;;;25.48;36.49;101356.63;5083601;27;45712;-59
2023/09/23 10:13:23;;;;;;;;;1.00;1.00;;;;;25.49;36.65;101355.63;5069787;28;46316;-59
2023/09/23 10:16:02;;;;;;;;;3.00;2.00;;;;;25.65;36.54;101361.34;5081459;28;45378;-59
2023/09/23 10:18:34;;;;;;;;;2.50;2.00;;;;;25.95;36.47;101354.66;5081539;27;45367;-59
2023/09/23 10:20:59;;;;;;;;;1.50;1.50;;;;;25.69;35.61;101359.19;5081645;27;45329;-59
2023/09/23 10:23:24;;;;;;;;;2.00;2.00;;;;;25.46;36.45;101362.28;5081415;28;46075;-58
2023/09/23 10:25:52;;;;;;;;;0.25;0.25;;;;;25.58;36.96;101365.69;5081740;28;53510;-58
2023/09/23 10:28:24;;;;;;;;;2.25;1.00;;;;;26.00;37.66;101368.81;5081687;28;45354;-59
2023/09/23 10:31:00;;;;;;;;;1.50;1.50;;;;;26.25;35.97;101368.03;5081532;28;45426;-59
2023/09/23 10:33:27;;;;;;;;;2.00;2.00;;;;;26.27;36.31;101371.53;5081837;28;45448;-59
2023/09/23 10:35:58;;;;;;;;;2.00;2.00;;;;;26.59;36.50;101370.97;5081844;28;45509;-59
2023/09/23 10:38:25;;;;;;;;;3.00;1.00;;;;;26.54;35.19;101365.06;5086238;27;45365;-55
2023/09/23 10:40:55;;;;;;;;;2.50;1.00;;;;;26.55;34.75;101365.91;5081643;28;45377;-56
2023/09/23 10:43:24;;;;;;;;;3.00;1.00;;;;;26.55;34.80;101374.19;5081377;27;45295;-57
2023/09/23 10:45:51;;;;;;;;;1.00;1.00;;;;;26.54;35.16;101376.06;5079949;27;46659;-57
2023/09/23 10:48:16;;;;;;;;;1.00;1.00;;;;;26.74;34.77;101374.88;5070503;28;45266;-58
2023/09/23 10:50:43;;;;;;;;;2.75;2.75;;;;;27.00;35.25;101374.91;5081349;28;45528;-57
2023/09/23 10:53:08;;;;;;;;;1.00;1.00;;;;;27.09;33.62;101392.34;5063367;28;46249;-58
2023/09/23 10:55:34;;;;;;;;;2.00;2.00;;;;;27.04;34.26;101379.09;5081156;28;45270;-57
2023/09/23 10:58:00;;;;;;;;;2.75;1.00;;;;;27.26;33.87;101387.81;5081298;28;45283;-58
2023/09/23 11:00:28;;;;;;;;;1.00;1.00;;;;;27.52;33.18;101380.38;5081437;28;45491;-58
2023/09/23 11:02:54;;;;;;;;;1.50;1.50;;;;;27.50;32.62;101385.19;5058211;28;47448;-56
2023/09/23 11:05:20;;;;;;;;;3.00;1.00;;;;;27.74;31.63;101384.47;5081053;28;45460;-58
2023/09/23 11:07:46;;;;;;;;;0.50;0.50;;;;;27.77;32.31;101386.91;5081635;27;45326;-58
2023/09/23 11:10:12;;;;;;;;;2.75;1.50;;;;;27.84;31.99;101387.97;5080630;27;45318;-58
2023/09/23 11:12:43;;;;;;;;;1.00;1.00;;;;;27.92;32.09;101378.84;5080743;27;47132;-57
2023/09/23 11:15:11;;;;;;;;;2.00;2.00;;;;;27.70;31.53;101383.09;5080672;27;45373;-58
2023/09/23 11:17:42;;;;;;;;;1.00;1.00;;;;;27.81;31.69;101388.31;5081295;28;45477;-63
2023/09/23 11:20:10;;;;;;;;;1.75;0.75;;;;;27.99;31.38;101391.78;5080858;27;45290;-64
2023/09/23 11:22:37;;;;;;;;;0.75;0.75;;;;;28.12;31.12;101394.09;5083520;27;46552;-64
2023/09/23 11:25:09;;;;;;;;;0.50;0.50;;;;;28.24;30.13;101395.53;5079704;27;45542;-67
2023/09/23 11:27:35;;;;;;;;;2.50;1.00;;;;;28.32;31.39;101394.69;5078036;27;45378;-67
2023/09/23 11:30:00;;;;;;;;;0.00;0.00;;;;;28.11;30.97;101403.38;5087176;27;45517;-69
2023/09/23 11:32:26;;;;;;;;;1.00;0.75;;;;;27.99;31.46;101397.31;5094990;27;45324;-69
2023/09/23 11:34:52;;;;;;;;;0.50;0.50;;;;;28.11;31.96;101409.75;5074936;27;45500;-67
2023/09/23 11:37:22;;;;;;;;;1.25;1.25;;;;;28.17;32.67;101414.63;5080569;28;45379;-68
2023/09/23 11:39:48;;;;;;;;;0.00;0.00;;;;;28.17;32.95;101414.63;5068141;27;45210;-68
2023/09/23 11:42:14;;;;;;;;;0.75;0.75;;;;;28.05;32.65;101417.84;5069791;27;46013;-69
2023/09/23 11:44:39;;;;;;;;;1.00;1.00;;;;;28.08;33.15;101425.75;5084132;27;45315;-66
2023/09/23 11:47:05;;;;;;;;;1.50;1.50;;;;;27.98;32.96;101417.66;5088205;27;45422;-67
2023/09/23 11:49:30;;;;;;;;;0.50;0.50;;;;;27.96;33.36;101427.97;5086593;27;45788;-67
2023/09/23 11:51:56;;;;;;;;;1.25;0.75;;;;;27.91;32.79;101430.34;5080235;28;50585;-66
2023/09/23 11:54:21;;;;;;;;;2.75;1.00;;;;;27.79;32.86;101431.69;5089050;27;45288;-62
2023/09/23 11:56:46;;;;;;;;;0.00;0.00;;;;;27.79;33.04;101434.44;5086866;27;45462;-63
2023/09/23 11:59:14;;;;;;;;;1.00;1.00;;;;;27.75;32.98;101433.03;5079661;27;45502;-64
2023/09/23 12:01:40;;;;;;;;;1.00;1.00;;;;;27.71;32.89;101432.53;5079382;27;46141;-66
2023/09/23 12:04:05;;;;;;;;;0.50;0.50;;;;;27.76;33.24;101445.78;5080245;28;45378;-67
2023/09/23 12:06:34;;;;;;;;;2.50;0.50;;;;;27.44;33.00;101428.03;5080216;28;45333;-66
2023/09/23 12:09:01;;;;;;;;;1.00;1.00;;;;;27.56;33.13;101439.66;5079949;28;46388;-66
2023/09/23 12:11:26;;;;;;;;;1.25;0.00;;;;;27.48;33.38;101434.06;5079547;28;45381;-67
2023/09/23 12:13:52;;;;;;;;;0.25;0.25;;;;;27.56;33.01;101436.06;5079451;28;58985;-68
2023/09/23 12:16:18;;;;;;;;;1.50;0.50;;;;;27.60;33.15;101441.06;5080345;28;45458;-67
2023/09/23 12:18:44;;;;;;;;;1.75;0.50;;;;;27.74;33.05;101443.19;5079683;27;45219;-66
2023/09/23 12:21:10;;;;;;;;;0.75;0.75;;;;;27.91;32.66;101441.38;5079730;27;47137;-67
2023/09/23 12:23:36;;;;;;;;;2.75;0.00;;;;;28.65;31.17;101439.72;5079657;28;45222;-66
2023/09/23 12:26:03;;;;;;;;;2.75;0.25;;;;;29.43;29.87;101437.34;5078010;28;45355;-64
2023/09/23 12:28:29;;;;;;;;;2.00;0.00;;;;;29.98;29.28;101446.50;5079189;28;45589;-67
2023/09/23 12:30:54;;;;;;;;;0.75;0.75;;;;;30.07;28.37;101439.03;5078828;28;46463;-66
2023/09/23 12:33:20;;;;;;;;;2.00;2.00;;;;;30.30;27.78;101436.28;5079432;28;45311;-69
2023/09/23 12:35:46;;;;;;;;;1.00;1.00;;;;;29.45;28.31;101425.03;5079597;28;45371;-68
2023/09/23 12:38:12;;;;;;;;;0.75;0.75;;;;;29.39;29.83;101431.28;5079175;28;46213;-71
2023/09/23 12:40:37;;;;;;;;;0.75;0.75;;;;;29.25;29.04;101438.38;5078722;28;56659;-71
2023/09/23 12:43:03;;;;;;;;;0.00;0.00;;;;;28.94;28.41;101434.56;5079099;28;45401;-72
2023/09/23 12:45:28;;;;;;;;;0.25;0.25;;;;;28.71;28.84;101450.94;5079741;28;45443;-71
2023/09/23 12:47:54;;;;;;;;;0.00;0.00;;;;;28.47;29.75;101457.28;5065881;28;45971;-70
2023/09/23 12:50:19;;;;;;;;;0.00;0.00;;;;;28.22;30.53;101453.59;5079516;28;45323;-66
2023/09/23 12:52:44;;;;;;;;;0.25;0.25;;;;;27.99;30.71;101463.47;5079587;27;45608;-65
2023/09/23 12:55:10;;;;;;;;;0.00;0.00;;;;;28.01;30.88;101455.91;5079716;27;45685;-58
2023/09/23 12:57:35;;;;;;;;;0.00;0.00;;;;;27.94;31.10;101448.47;5079000;28;45488;-57
2023/09/23 13:00:02;;;;;;;;;0.25;0.25;;;;;28.01;31.19;101461.41;5079203;28;55144;-58
2023/09/23 13:02:28;;;;;;;;;1.25;0.50;;;;;27.94;30.45;101459.47;5070757;28;45257;-59
2023/09/23 13:04:53;;;;;;;;;0.00;0.00;;;;;28.55;30.01;101450.91;5079574;28;45227;-58
2023/09/23 13:07:18;;;;;;;;;0.00;0.00;;;;;29.49;29.58;101451.28;5077404;28;56635;-58
2023/09/23 13:09:44;;;;;;;;;1.00;0.00;;;;;30.25;28.61;101450.69;5073570;27;52450;-65
2023/09/23 13:12:09;;;;;;;;;0.00;0.00;;;;;30.53;29.04;101456.59;5078076;28;45331;-63
2023/09/23 13:14:34;;;;;;;;;0.00;0.00;;;;;30.67;27.63;101444.72;5078348;27;45493;-67
2023/09/23 13:17:00;;;;;;;;;0.00;0.00;;;;;30.65;27.65;101441.28;5078391;27;48314;-64
2023/09/23 13:19:25;;;;;;;;;0.00;0.00;;;;;30.67;28.04;101449.41;5091797;27;46863;-66
2023/09/23 13:21:50;;;;;;;;;0.25;0.25;;;;;30.34;26.96;101449.59;5080640;27;45346;-64
2023/09/23 13:24:16;;;;;;;;;0.25;0.00;;;;;29.81;27.03;101455.84;5083928;27;52266;-63
2023/09/23 13:26:42;;;;;;;;;1.00;0.75;;;;;29.46;28.04;101453.53;5076417;28;63302;-67
2023/09/23 13:29:08;;;;;;;;;0.50;0.50;;;;;29.38;27.70;101459.94;5078924;27;45672;-64
2023/09/23 13:31:33;;;;;;;;;1.00;1.00;;;;;29.46;27.60;101472.88;5078266;28;53516;-64
2023/09/23 13:33:58;;;;;;;;;3.50;0.25;;;;;29.32;27.66;101463.38;5077828;28;45453;-61
2023/09/23 13:36:24;;;;;;;;;0.25;0.00;;;;;29.19;29.81;101463.03;5078553;28;56666;-64
2023/09/23 13:38:50;;;;;;;;;0.75;0.50;;;;;29.27;29.18;101463.03;5081110;27;61428;-60
2023/09/23 13:41:15;;;;;;;;;0.50;0.50;;;;;29.46;28.79;101470.13;5080713;28;45308;-65
2023/09/23 13:43:41;;;;;;;;;0.00;0.00;;;;;29.47;28.59;101464.41;5084344;27;45450;-68
2023/09/23 13:46:06;;;;;;;;;0.50;0.00;;;;;29.35;28.42;101477.72;5082394;27;45486;-63
2023/09/23 13:48:31;;;;;;;;;0.25;0.25;;;;;29.05;29.49;101472.03;5081908;28;58360;-65
2023/09/23 13:50:57;;;;;;;;;0.50;0.50;;;;;29.04;28.98;101468.41;5082386;28;45406;-62
2023/09/23 13:53:22;;;;;;;;;2.00;2.00;;;;;29.00;29.54;101485.50;5082536;27;45310;-59
2023/09/23 13:55:47;;;;;;;;;0.75;0.75;;;;;28.97;28.79;101479.28;5082211;27;45350;-59
2023/09/23 13:58:13;;;;;;;;;0.50;0.50;;;;;28.97;28.83;101481.19;5081553;28;52253;-60
2023/09/23 14:00:38;;;;;;;;;0.00;0.00;;;;;29.01;28.44;101482.53;5081724;27;45281;-59
2023/09/23 14:03:04;;;;;;;;;2.00;1.00;;;;;28.97;28.92;101484.81;5081021;28;45280;-60
2023/09/23 14:05:29;;;;;;;;;1.00;1.00;;;;;28.76;29.27;101484.41;5082047;27;45500;-59
2023/09/23 14:07:54;;;;;;;;;0.75;0.00;;;;;28.78;29.35;101478.72;5082043;28;46113;-60
2023/09/23 14:10:20;;;;;;;;;1.50;1.00;;;;;28.88;29.30;101496.00;5081924;27;45259;-60
2023/09/23 14:12:46;;;;;;;;;0.50;0.50;;;;;28.65;29.67;101487.50;5081846;27;45452;-58
2023/09/23 14:15:11;;;;;;;;;2.00;0.50;;;;;28.90;30.09;101503.09;5081556;28;45337;-60
2023/09/23 14:17:37;;;;;;;;;0.75;0.75;;;;;29.62;28.48;101490.28;5081061;28;52937;-60
2023/09/23 14:20:03;;;;;;;;;1.75;0.00;;;;;30.25;27.95;101500.47;5081795;28;45458;-59
2023/09/23 14:22:30;;;;;;;;;0.75;0.75;;;;;30.23;27.79;101498.91;5082204;28;45442;-59
2023/09/23 14:24:55;;;;;;;;;1.00;1.00;;;;;30.08;27.73;101488.63;5081949;28;45506;-60
2023/09/23 14:27:21;;;;;;;;;0.25;0.25;;;;;29.97;28.75;101488.13;5081427;28;45640;-60
2023/09/23 14:29:46;;;;;;;;;1.50;1.00;;;;;30.06;28.51;101487.06;5081826;28;45257;-60
2023/09/23 14:32:12;;;;;;;;;0.25;0.25;;;;;30.09;29.00;101493.13;5082062;28;45433;-61
2023/09/23 14:34:37;;;;;;;;;1.25;0.75;;;;;29.76;28.18;101485.09;5081747;28;45330;-60
2023/09/23 14:37:02;;;;;;;;;1.50;1.25;;;;;29.79;28.58;101493.88;5081611;28;51557;-60
2023/09/23 14:39:28;;;;;;;;;0.25;0.25;;;;;29.70;28.17;101493.03;5083704;28;45336;-60
2023/09/23 14:41:53;;;;;;;;;2.00;1.00;;;;;29.51;28.55;101500.84;5063423;28;45552;-59
2023/09/23 14:44:18;;;;;;;;;0.00;0.00;;;;;29.41;27.52;101503.81;5081306;28;45361;-60
2023/09/23 14:46:44;;;;;;;;;1.50;0.50;;;;;29.34;28.41;101495.31;5063121;28;46191;-59
2023/09/23 14:49:09;;;;;;;;;0.50;0.50;;;;;29.37;28.72;101485.84;5081007;28;45393;-60
2023/09/23 14:51:36;;;;;;;;;1.00;1.00;;;;;29.57;28.11;101495.50;5081633;28;45323;-59
2023/09/23 14:54:01;;;;;;;;;0.00;0.00;;;;;29.97;28.29;101489.00;5081420;28;45374;-58
2023/09/23 14:56:26;;;;;;;;;0.00;0.00;;;;;30.41;27.56;101494.00;5080949;28;46048;-58
2023/09/23 14:58:52;;;;;;;;;0.00;0.00;;;;;30.75;27.16;101499.16;5081135;28;45319;-57
2023/09/23 15:01:17;;;;;;;;;0.25;0.25;;;;;31.03;26.77;101500.34;5081254;28;45498;-59
2023/09/23 15:03:43;;;;;;;;;0.00;0.00;;;;;31.21;26.35;101502.84;5081045;28;45495;-58
2023/09/23 15:06:09;;;;;;;;;0.00;0.00;;;;;31.68;26.77;101504.47;5081096;28;47428;-59
2023/09/23 15:08:35;;;;;;;;;0.00;0.00;;;;;32.28;26.09;101507.06;5080636;28;56866;-60
2023/09/23 15:11:01;;;;;;;;;0.00;0.00;;;;;32.87;24.86;101510.59;5081309;28;45233;-59
2023/09/23 15:13:26;;;;;;;;;0.00;0.00;;;;;33.43;23.73;101506.00;5080553;28;45473;-59
2023/09/23 15:15:52;;;;;;;;;1.25;0.00;;;;;33.81;23.90;101505.66;5080848;28;47094;-58
2023/09/23 15:18:18;;;;;;;;;2.00;0.00;;;;;34.13;22.89;101518.91;5080394;28;45277;-60
2023/09/23 15:20:43;;;;;;;;;0.75;0.75;;;;;34.12;23.41;101528.31;5080511;27;45379;-60
2023/09/23 15:23:10;;;;;;;;;0.00;0.00;;;;;33.91;23.30;101534.00;5080779;28;45363;-59
2023/09/23 15:25:36;;;;;;;;;0.50;0.50;;;;;33.18;23.17;101531.59;5080840;28;46629;-60
2023/09/23 15:28:03;;;;;;;;;0.50;0.50;;;;;32.25;24.27;101533.28;5080415;28;45282;-60
2023/09/23 15:30:29;;;;;;;;;0.75;0.75;;;;;31.50;25.39;101554.69;5080923;28;45237;-60
2023/09/23 15:32:54;;;;;;;;;0.25;0.25;;;;;30.92;26.10;101552.53;5080776;28;45146;-59
2023/09/23 15:35:23;;;;;;;;;0.50;0.50;;;;;30.39;26.30;101555.03;5062505;28;45393;-59
2023/09/23 15:37:48;;;;;;;;;0.75;0.75;;;;;29.91;26.85;101550.53;5080491;28;45200;-59
2023/09/23 15:40:16;;;;;;;;;1.25;1.25;;;;;29.55;26.71;101550.06;5080407;28;45165;-63
2023/09/23 15:42:42;;;;;;;;;0.50;0.50;;;;;29.12;27.30;101551.25;5080326;28;45499;-64
2023/09/23 15:45:08;;;;;;;;;2.00;2.00;;;;;28.86;28.32;101562.41;5080601;27;45406;-64
2023/09/23 15:47:33;;;;;;;;;2.00;2.00;;;;;28.50;29.01;101572.78;5073516;27;45385;-64
2023/09/23 15:49:58;;;;;;;;;1.75;1.75;;;;;28.48;29.70;101565.75;5090991;27;45508;-63
2023/09/23 15:52:24;;;;;;;;;0.00;0.00;;;;;28.43;30.14;101573.63;5080693;28;51464;-64
2023/09/23 15:54:49;;;;;;;;;3.00;2.00;;;;;28.32;30.42;101565.69;5080504;27;45341;-64
2023/09/23 15:57:15;;;;;;;;;1.00;1.00;;;;;28.14;30.11;101558.31;5080182;27;45454;-64
2023/09/23 15:59:41;;;;;;;;;0.75;0.75;;;;;28.21;30.56;101573.22;5080665;27;45413;-63
2023/09/23 16:02:06;;;;;;;;;1.75;1.75;;;;;28.31;30.81;101570.31;5078249;28;45327;-64
2023/09/23 16:04:32;;;;;;;;;0.75;0.75;;;;;28.34;30.32;101574.63;5080384;28;45361;-64
2023/09/23 16:06:58;;;;;;;;;0.75;0.75;;;;;28.27;30.38;101574.44;5080438;27;45350;-64
2023/09/23 16:09:23;;;;;;;;;1.50;1.50;;;;;28.16;30.58;101580.22;5080523;28;45476;-63
2023/09/23 16:11:48;;;;;;;;;4.00;2.25;;;;;28.01;30.44;101576.31;5079735;27;45856;-63
2023/09/23 16:14:13;;;;;;;;;1.25;1.25;;;;;27.93;31.19;101579.03;5079920;27;45264;-66
2023/09/23 16:16:39;;;;;;;;;1.00;1.00;;;;;27.68;31.54;101576.13;5080106;28;45577;-65
2023/09/23 16:19:04;;;;;;;;;0.75;0.75;;;;;27.63;31.63;101581.25;5079993;28;45364;-65
2023/09/23 16:21:29;;;;;;;;;1.50;1.50;;;;;27.59;31.62;101574.31;5079980;28;45348;-58
2023/09/23 16:23:56;;;;;;;;;2.00;2.00;;;;;27.64;31.57;101582.13;5086115;27;53089;-58
2023/09/23 16:26:22;;;;;;;;;2.00;2.00;;;;;27.67;30.97;101579.03;5071965;27;45328;-55
2023/09/23 16:28:48;;;;;;;;;3.75;2.00;;;;;27.52;30.90;101581.47;5079705;28;45549;-55
2023/09/23 16:31:13;;;;;;;;;1.00;1.00;;;;;27.42;31.40;101588.94;5084195;27;45328;-53
2023/09/23 16:33:38;;;;;;;;;2.50;2.50;;;;;27.31;31.40;101583.69;5079145;28;46247;-58
2023/09/23 16:36:04;;;;;;;;;2.75;2.75;;;;;27.45;31.37;101594.16;5079048;27;45327;-59
2023/09/23 16:38:31;;;;;;;;;1.00;1.00;;;;;27.47;31.26;101604.00;5088191;27;45171;-54
2023/09/23 16:40:57;;;;;;;;;0.75;0.75;;;;;27.30;30.89;101601.25;5082314;27;46204;-54
2023/09/23 16:43:22;;;;;;;;;3.25;2.00;;;;;27.27;31.49;101609.81;5077039;28;45485;-52
2023/09/23 16:45:49;;;;;;;;;3.00;3.00;;;;;27.23;31.36;101600.13;5079091;27;45310;-54
2023/09/23 16:48:15;;;;;;;;;2.00;2.00;;;;;27.28;31.44;101614.31;5078879;28;45379;-52
2023/09/23 16:50:41;;;;;;;;;3.50;2.50;;;;;27.19;31.55;101618.00;5079021;27;45393;-53
2023/09/23 16:53:10;;;;;;;;;4.00;1.00;;;;;27.27;31.77;101618.09;5079208;27;45472;-53
2023/09/23 16:55:35;;;;;;;;;1.75;1.25;;;;;27.26;31.76;101597.94;5078999;27;45370;-53
2023/09/23 16:58:01;;;;;;;;;0.75;0.75;;;;;27.48;31.95;101626.88;5079242;27;45216;-53
2023/09/23 17:00:26;;;;;;;;;3.25;1.75;;;;;27.46;31.17;101624.31;5078954;27;45178;-54